Terminal Aerodrome Forecast
Issued by NWS Sioux Falls, SD

Home | Current Version | Previous Version | Graphics & Text | Print | Product List | Glossary On
Versions: 1 2 3 4 5 6 7 8 9 10 11 12 13 14 15 16 17 18 19 20
000
FTUS43 KFSD 272106 AAA
TAFFSD
TAF AMD
KFSD 272106Z 2721/2818 12008KT P6SM SCT025 BKN120
      TEMPO 2721/2723 5SM TSRA BKN025CB
     FM280200 10011KT 5SM SHRA BKN020 OVC035
     FM280900 05007KT 3SM BR OVC007
     FM281400 04010KT 6SM BR OVC010=

USA.gov is the U.S. government's official web portal to all federal, state and local government web resources and services.